Date,TemperatureHighF,TemperatureAvgF,TemperatureLowF,DewpointHighF,DewpointAvgF,DewpointLowF,HumidityHigh,HumidityAvg,HumidityLow,PressureMaxIn,PressureMinIn,WindSpeedMaxMPH,WindSpeedAvgMPH,GustSpeedMaxMPH,PrecipitationSumIn
2013-2-1,25,15,6,23,4,-4,93,61,47,30.39,30.21,29,9,33,0.00
2013-2-2,33,27,22,26,19,13,93,74,65,30.24,30.00,21,7,24,1.46
2013-2-3,33,28,23,27,20,13,100,73,46,30.15,30.00,31,8,35,0.00
2013-2-4,43,34,28,29,24,20,80,69,51,30.03,29.74,19,6,21,0.00
2013-2-5,46,35,27,33,29,24,93,77,57,30.15,29.85,24,6,27,0.00
2013-2-6,48,38,27,35,31,26,100,77,51,30.21,30.06,8,3,10,0.00
2013-2-7,43,39,37,43,38,33,100,94,80,30.12,29.82,14,5,16,0.37
2013-2-8,38,33,31,38,28,24,100,83,72,30.39,30.06,19,5,21,0.00
2013-2-9,40,35,32,36,29,25,89,78,62,30.39,30.06,0,0,0,0.00
2013-2-10,52,46,39,52,44,30,100,94,55,30.09,29.50,24,4,27,0.78
2013-2-11,45,39,32,32,27,23,87,63,51,30.18,29.71,40,12,45,0.00
2013-2-12,40,33,27,30,27,25,100,80,55,30.18,29.94,17,3,20,2.24
2013-2-13,51,39,30,34,31,28,100,74,43,29.97,29.74,19,3,22,0.00
2013-2-14,47,40,36,36,32,29,92,74,55,30.09,29.74,25,8,28,0.00
2013-2-15,37,31,25,33,18,4,91,60,25,30.30,29.97,29,11,33,0.00
2013-2-16,33,25,17,17,13,7,73,60,44,30.27,30.06,25,8,28,0.00
2013-2-17,82,30,16,24,18,9,77,62,43,30.24,29.94,14,4,16,0.00
2013-2-18,58,45,30,50,37,23,100,76,58,30.24,29.53,36,8,41,0.17
2013-2-19,31,25,22,24,14,9,77,63,53,30.27,29.85,42,20,47,0.00
2013-2-20,67,22,11,17,9,-10,79,58,45,30.39,30.24,25,6,28,0.00
2013-2-21,34,25,18,34,21,15,100,85,69,30.39,29.82,26,5,30,0.00
2013-2-22,38,34,29,36,30,21,100,85,63,30.03,29.76,17,5,19,0.00
2013-2-23,34,27,23,21,19,16,81,70,56,30.06,29.97,12,3,14,0.00
2013-2-24,42,31,20,28,22,16,89,72,51,30.12,30.00,9,2,10,0.00
2013-2-25,47,37,29,35,31,27,97,78,56,30.15,29.79,17,5,20,0.04
2013-2-26,38,36,34,36,35,30,100,98,74,29.85,29.38,25,7,28,0.13
2013-2-27,36,34,33,35,34,33,100,99,89,29.85,29.62,19,12,22,0.00
2013-2-28,38,35,34,36,34,32,100,98,82,30.09,29.85,17,9,19,0.08